Time;durP1;ratioP1;P1;durP2;ratioP2;P2;SDS_P1;SDS_P2;PMS_P1;PMS_P2;Temp;Humidity;BMP_temperature;BMP_pressure;BME280_temperature;BME280_humidity;BME280_pressure;Samples;Min_cycle;Max_cycle;Signal;HPM_P1;HPM_P2
2021/09/25 00:01:58;;;;;;;4.80;1.73;;;22.10;57.50;;;;;;5115385;28;20439;-62
2021/09/25 00:04:25;;;;;;;3.75;1.60;;;22.10;57.60;;;;;;5133650;28;20035;-63
2021/09/25 00:06:51;;;;;;;3.20;1.35;;;22.10;57.60;;;;;;5133794;28;20458;-63
2021/09/25 00:09:16;;;;;;;4.55;1.70;;;22.10;57.60;;;;;;5133854;28;20038;-63
2021/09/25 00:11:42;;;;;;;3.28;1.50;;;22.10;57.60;;;;;;5133617;28;20489;-63
2021/09/25 00:14:08;;;;;;;3.22;1.80;;;22.00;57.60;;;;;;5133959;28;20063;-64
2021/09/25 00:16:33;;;;;;;5.03;1.77;;;22.00;57.60;;;;;;5133628;28;20101;-64
2021/09/25 00:19:00;;;;;;;3.97;1.70;;;22.00;57.60;;;;;;5133759;28;20028;-63
2021/09/25 00:21:26;;;;;;;3.38;1.67;;;22.00;57.60;;;;;;5135845;27;20049;-63
2021/09/25 00:23:53;;;;;;;3.70;1.88;;;22.00;57.60;;;;;;5137569;27;20075;-63
2021/09/25 00:26:19;;;;;;;4.30;1.83;;;22.00;57.60;;;;;;5137508;27;20462;-63
2021/09/25 00:28:45;;;;;;;4.43;1.90;;;22.00;57.70;;;;;;5137563;27;20076;-63
2021/09/25 00:31:11;;;;;;;3.00;1.65;;;22.00;57.60;;;;;;5137420;27;20046;-64
2021/09/25 00:33:37;;;;;;;3.28;1.58;;;22.00;57.70;;;;;;5137363;27;20108;-63
2021/09/25 00:36:03;;;;;;;3.47;1.70;;;22.00;57.70;;;;;;5119008;27;20019;-64
2021/09/25 00:38:28;;;;;;;3.63;1.65;;;22.00;57.70;;;;;;5136997;27;20058;-64
2021/09/25 00:40:54;;;;;;;3.90;1.75;;;22.00;57.70;;;;;;5137661;27;20076;-63
2021/09/25 00:43:19;;;;;;;3.58;1.70;;;22.00;57.70;;;;;;5137435;27;20410;-63
2021/09/25 00:45:45;;;;;;;3.67;1.70;;;22.00;57.70;;;;;;5137144;27;20055;-63
2021/09/25 00:48:11;;;;;;;3.20;1.73;;;22.00;57.70;;;;;;5137048;27;20041;-64
2021/09/25 00:50:36;;;;;;;3.83;1.77;;;22.00;57.70;;;;;;5118972;27;20102;-63
2021/09/25 00:53:03;;;;;;;3.30;1.55;;;22.00;57.70;;;;;;5137138;27;20154;-63
2021/09/25 00:55:28;;;;;;;3.22;1.75;;;22.00;57.70;;;;;;5136952;27;20382;-63
2021/09/25 00:57:59;;;;;;;4.00;1.98;;;22.00;57.80;;;;;;5136759;27;20027;-63
2021/09/25 01:00:27;;;;;;;3.33;1.63;;;22.00;57.80;;;;;;5137391;27;20027;-63
2021/09/25 01:02:53;;;;;;;3.53;1.80;;;22.00;57.80;;;;;;5136748;27;20073;-63
2021/09/25 01:05:20;;;;;;;3.50;1.77;;;22.00;57.80;;;;;;5136750;27;20023;-63
2021/09/25 01:07:46;;;;;;;4.05;1.90;;;22.00;57.80;;;;;;5136938;27;20030;-63
2021/09/25 01:10:12;;;;;;;3.40;1.70;;;22.00;57.80;;;;;;5136597;27;20044;-63
2021/09/25 01:12:38;;;;;;;3.15;1.63;;;22.00;57.80;;;;;;5136715;27;20019;-63
2021/09/25 01:15:05;;;;;;;4.10;1.67;;;22.00;57.80;;;;;;5136755;27;20371;-62
2021/09/25 01:17:30;;;;;;;3.10;1.50;;;22.00;57.80;;;;;;5118078;27;20561;-65
2021/09/25 01:19:56;;;;;;;3.40;1.50;;;22.00;57.80;;;;;;5136452;27;20110;-64
2021/09/25 01:22:23;;;;;;;3.22;1.60;;;22.00;57.90;;;;;;5117991;27;20485;-66
2021/09/25 01:24:49;;;;;;;4.35;1.73;;;21.90;57.90;;;;;;5136480;27;20024;-63
2021/09/25 01:27:14;;;;;;;3.63;1.75;;;22.00;57.90;;;;;;5136342;27;20080;-64
2021/09/25 01:29:40;;;;;;;4.47;1.90;;;22.00;57.90;;;;;;5136279;27;20038;-64
2021/09/25 01:32:06;;;;;;;2.92;1.45;;;22.00;57.80;;;;;;5136020;27;20042;-63
2021/09/25 01:34:32;;;;;;;3.80;1.90;;;22.00;57.90;;;;;;5136437;27;20024;-63
2021/09/25 01:36:58;;;;;;;5.18;1.65;;;22.00;57.90;;;;;;5136198;27;20072;-63
2021/09/25 01:39:23;;;;;;;3.38;1.48;;;21.90;57.90;;;;;;5117472;27;20047;-64
2021/09/25 01:41:49;;;;;;;3.85;1.60;;;22.00;57.90;;;;;;5136108;27;20018;-64
2021/09/25 01:44:15;;;;;;;3.58;1.70;;;21.90;57.90;;;;;;5135986;27;20034;-63
2021/09/25 01:46:40;;;;;;;2.60;1.33;;;21.90;57.90;;;;;;5136018;27;20042;-63
2021/09/25 01:49:06;;;;;;;3.53;1.70;;;21.90;57.90;;;;;;5135939;27;20473;-63
2021/09/25 01:51:31;;;;;;;3.92;1.88;;;21.90;57.80;;;;;;5135878;27;20063;-63
2021/09/25 01:53:57;;;;;;;2.97;1.40;;;22.00;57.90;;;;;;5117617;27;20098;-63
2021/09/25 01:56:23;;;;;;;3.53;1.70;;;21.90;57.80;;;;;;5136054;27;20019;-63
2021/09/25 01:58:48;;;;;;;2.70;1.42;;;21.90;57.90;;;;;;5135892;27;20034;-63
2021/09/25 02:01:14;;;;;;;2.88;1.60;;;21.90;57.80;;;;;;5135693;27;20027;-63
2021/09/25 02:03:40;;;;;;;3.75;1.90;;;21.90;57.90;;;;;;5135661;27;20431;-62
2021/09/25 02:06:07;;;;;;;3.10;1.63;;;21.90;57.90;;;;;;5135563;27;20024;-63
2021/09/25 02:08:34;;;;;;;4.53;1.52;;;21.90;57.90;;;;;;5135516;27;20282;-63
2021/09/25 02:10:59;;;;;;;3.33;1.52;;;21.90;57.90;;;;;;5135484;27;20427;-63
2021/09/25 02:13:26;;;;;;;4.57;1.95;;;21.90;57.90;;;;;;5135428;27;20023;-63
2021/09/25 02:15:52;;;;;;;3.40;1.67;;;21.90;57.90;;;;;;5135379;27;20557;-63
2021/09/25 02:18:17;;;;;;;3.90;1.60;;;21.90;57.90;;;;;;5116802;27;20122;-63
2021/09/25 02:20:43;;;;;;;3.90;1.80;;;21.90;57.90;;;;;;5135398;27;20034;-63
2021/09/25 02:23:09;;;;;;;3.45;1.63;;;21.90;57.90;;;;;;5135524;27;20027;-63
2021/09/25 02:25:35;;;;;;;3.20;1.67;;;21.90;57.90;;;;;;5135163;27;20063;-64
2021/09/25 02:28:00;;;;;;;3.40;1.70;;;21.90;57.90;;;;;;5135154;27;20446;-63
2021/09/25 02:30:27;;;;;;;2.85;1.50;;;21.80;57.80;;;;;;5135280;27;20117;-63
2021/09/25 02:32:53;;;;;;;4.35;1.90;;;21.90;57.90;;;;;;5134999;27;20056;-63
2021/09/25 02:35:20;;;;;;;3.35;1.67;;;21.90;57.90;;;;;;5135249;27;20023;-63
2021/09/25 02:37:46;;;;;;;3.92;1.63;;;21.90;57.80;;;;;;5134765;27;20019;-63
2021/09/25 02:40:14;;;;;;;3.75;1.75;;;21.90;58.00;;;;;;5134862;27;20160;-63
2021/09/25 02:42:40;;;;;;;3.35;1.80;;;21.80;57.90;;;;;;5134567;27;20110;-63
2021/09/25 02:45:06;;;;;;;3.20;1.58;;;21.90;57.90;;;;;;5134392;27;20107;-63
2021/09/25 02:47:32;;;;;;;2.63;1.45;;;21.80;57.90;;;;;;5134643;27;20423;-64
2021/09/25 02:49:57;;;;;;;3.13;1.65;;;21.90;57.90;;;;;;5134776;27;20098;-64
2021/09/25 02:52:23;;;;;;;3.72;1.38;;;21.90;57.90;;;;;;5134675;27;20061;-63
2021/09/25 02:54:48;;;;;;;4.07;1.77;;;21.80;57.90;;;;;;5116175;27;20060;-63
2021/09/25 02:57:14;;;;;;;4.15;1.92;;;21.80;58.00;;;;;;5134764;27;20023;-63
2021/09/25 02:59:39;;;;;;;3.35;1.50;;;21.80;58.00;;;;;;5134494;27;20060;-63
2021/09/25 03:02:05;;;;;;;3.70;1.60;;;21.80;58.00;;;;;;5134629;27;20463;-64
2021/09/25 03:04:30;;;;;;;3.85;1.50;;;21.80;58.00;;;;;;5134472;27;20031;-63
2021/09/25 03:06:56;;;;;;;2.85;1.45;;;21.80;57.90;;;;;;5116074;27;20081;-64
2021/09/25 03:09:22;;;;;;;3.95;1.85;;;21.80;57.90;;;;;;5134425;27;20019;-64
2021/09/25 03:11:49;;;;;;;3.88;1.65;;;21.80;58.00;;;;;;5134286;27;20019;-64
2021/09/25 03:14:15;;;;;;;5.10;1.92;;;21.80;57.90;;;;;;5134483;27;20027;-63
2021/09/25 03:16:40;;;;;;;2.72;1.40;;;21.80;57.90;;;;;;5134204;27;20421;-63
2021/09/25 03:19:06;;;;;;;2.35;1.27;;;21.80;58.00;;;;;;5134113;27;20035;-63
2021/09/25 03:21:31;;;;;;;3.28;1.50;;;21.80;58.00;;;;;;5134233;27;20019;-63
2021/09/25 03:23:57;;;;;;;2.58;1.33;;;21.80;58.00;;;;;;5134206;27;20034;-63
2021/09/25 03:26:23;;;;;;;3.55;1.40;;;21.80;58.00;;;;;;5134126;27;20019;-63
2021/09/25 03:28:48;;;;;;;4.22;1.75;;;21.80;58.00;;;;;;5134102;27;20474;-63
2021/09/25 03:31:14;;;;;;;3.65;1.73;;;21.80;58.00;;;;;;5133991;27;20027;-63
2021/09/25 03:33:39;;;;;;;3.95;1.65;;;21.80;58.00;;;;;;5134208;27;20027;-63
2021/09/25 03:36:05;;;;;;;2.65;1.40;;;21.80;58.00;;;;;;5134131;27;20497;-64
2021/09/25 03:38:31;;;;;;;2.88;1.40;;;21.80;58.10;;;;;;5133930;27;20051;-63
2021/09/25 03:40:57;;;;;;;4.03;1.63;;;21.80;58.00;;;;;;5133931;27;20023;-63
2021/09/25 03:43:23;;;;;;;3.97;1.40;;;21.70;58.00;;;;;;5134129;28;20019;-62
2021/09/25 03:45:49;;;;;;;2.90;1.50;;;21.80;58.00;;;;;;5133909;28;20068;-61
2021/09/25 03:48:15;;;;;;;3.78;1.50;;;21.80;58.10;;;;;;5133857;28;20031;-62
2021/09/25 03:50:40;;;;;;;4.03;1.73;;;21.80;58.00;;;;;;5133858;28;20023;-61
2021/09/25 03:53:06;;;;;;;3.78;1.67;;;21.80;58.10;;;;;;5133838;28;20094;-61
2021/09/25 03:55:32;;;;;;;4.03;1.67;;;21.80;58.10;;;;;;5136609;27;20015;-61
2021/09/25 03:57:57;;;;;;;3.63;1.58;;;21.80;58.10;;;;;;5138318;27;20405;-61
2021/09/25 04:00:23;;;;;;;2.83;1.50;;;21.80;58.10;;;;;;5138038;27;20110;-61
2021/09/25 04:02:50;;;;;;;3.30;1.55;;;21.80;58.10;;;;;;5137904;27;20031;-62
2021/09/25 04:05:17;;;;;;;4.15;2.00;;;21.80;58.10;;;;;;5137956;27;20031;-62
2021/09/25 04:07:43;;;;;;;4.30;1.70;;;21.80;58.10;;;;;;5137849;27;20029;-62
2021/09/25 04:10:09;;;;;;;3.05;1.33;;;21.80;58.10;;;;;;5137993;27;20027;-61
2021/09/25 04:12:34;;;;;;;2.72;1.42;;;21.70;58.00;;;;;;5137706;27;20112;-62
2021/09/25 04:15:01;;;;;;;3.72;1.60;;;21.70;58.00;;;;;;5137696;27;20447;-62
2021/09/25 04:17:26;;;;;;;2.83;1.40;;;21.70;58.00;;;;;;5137671;27;20026;-62
2021/09/25 04:19:52;;;;;;;3.47;1.50;;;21.80;58.00;;;;;;5137518;27;20039;-62
2021/09/25 04:22:17;;;;;;;3.55;1.60;;;21.80;58.10;;;;;;5137550;27;20034;-62
2021/09/25 04:24:44;;;;;;;3.17;1.50;;;21.80;58.00;;;;;;5137463;27;20027;-61
2021/09/25 04:27:10;;;;;;;2.17;1.25;;;21.80;58.10;;;;;;5137752;27;20042;-62
2021/09/25 04:29:36;;;;;;;4.68;1.30;;;21.80;58.00;;;;;;5137435;27;20042;-62
2021/09/25 04:32:02;;;;;;;3.45;1.58;;;21.80;58.00;;;;;;5137375;27;20061;-62
2021/09/25 04:34:29;;;;;;;3.85;1.52;;;21.80;58.00;;;;;;5137344;27;20080;-62
2021/09/25 04:36:55;;;;;;;2.63;1.33;;;21.80;58.00;;;;;;5137300;27;20351;-62
2021/09/25 04:39:20;;;;;;;3.38;1.50;;;21.80;58.00;;;;;;5136960;27;20076;-62
2021/09/25 04:41:46;;;;;;;3.20;1.55;;;21.80;57.90;;;;;;5137286;27;20471;-62
2021/09/25 04:44:14;;;;;;;5.53;1.50;;;21.80;57.90;;;;;;5137420;27;20051;-62
2021/09/25 04:46:40;;;;;;;2.70;1.50;;;21.80;57.90;;;;;;5137171;27;20466;-62
2021/09/25 04:49:06;;;;;;;3.35;1.40;;;21.80;57.90;;;;;;5137113;27;20023;-62
2021/09/25 04:51:32;;;;;;;2.72;1.45;;;21.80;57.90;;;;;;5137129;27;20219;-63
2021/09/25 04:53:58;;;;;;;2.92;1.25;;;21.90;57.90;;;;;;5136990;27;20035;-61
2021/09/25 04:56:24;;;;;;;2.53;1.15;;;21.80;58.00;;;;;;5137218;27;20027;-62
2021/09/25 04:58:49;;;;;;;2.55;1.38;;;21.90;57.90;;;;;;5136765;27;20495;-62
2021/09/25 05:01:15;;;;;;;4.00;1.48;;;21.90;57.90;;;;;;5137134;27;20148;-62
2021/09/25 05:03:40;;;;;;;3.60;1.48;;;21.90;57.90;;;;;;5118359;27;20355;-62
2021/09/25 05:06:06;;;;;;;3.45;1.40;;;21.90;57.90;;;;;;5136053;27;20031;-62
2021/09/25 05:08:32;;;;;;;3.25;1.50;;;21.90;57.90;;;;;;5136726;27;20023;-62
2021/09/25 05:10:57;;;;;;;2.63;1.23;;;21.90;57.90;;;;;;5136881;27;20042;-62
2021/09/25 05:13:23;;;;;;;2.65;1.30;;;21.90;57.90;;;;;;5136658;27;20026;-62
2021/09/25 05:15:48;;;;;;;3.92;1.52;;;21.90;57.90;;;;;;5136897;27;20444;-61
2021/09/25 05:18:14;;;;;;;2.92;1.35;;;21.90;57.90;;;;;;5136718;27;20019;-62
2021/09/25 05:20:40;;;;;;;2.58;1.27;;;22.00;57.90;;;;;;5136592;27;20412;-62
2021/09/25 05:23:05;;;;;;;1.70;1.15;;;21.90;57.90;;;;;;5136410;27;20019;-62
2021/09/25 05:25:31;;;;;;;2.92;1.30;;;21.90;57.90;;;;;;5118426;27;20110;-62
2021/09/25 05:27:56;;;;;;;3.47;1.30;;;21.90;57.90;;;;;;5136339;27;20026;-62
2021/09/25 05:30:22;;;;;;;2.92;1.50;;;22.00;57.90;;;;;;5136602;27;20023;-62
2021/09/25 05:32:48;;;;;;;2.95;1.30;;;22.00;57.90;;;;;;5118030;27;20067;-62
2021/09/25 05:35:13;;;;;;;3.08;1.38;;;22.00;57.90;;;;;;5136199;27;20058;-62
2021/09/25 05:37:39;;;;;;;3.25;1.42;;;22.00;57.90;;;;;;5135973;27;20546;-62
2021/09/25 05:40:06;;;;;;;3.25;1.45;;;22.00;57.90;;;;;;5136354;27;20039;-62
2021/09/25 05:42:31;;;;;;;2.50;1.30;;;22.00;57.90;;;;;;5135887;27;20393;-62
2021/09/25 05:44:57;;;;;;;2.10;1.20;;;22.00;57.90;;;;;;5136093;27;20023;-62
2021/09/25 05:47:23;;;;;;;2.20;1.27;;;22.00;57.90;;;;;;5136051;27;20023;-62
2021/09/25 05:49:49;;;;;;;2.95;1.52;;;22.00;57.90;;;;;;5135922;27;20498;-62
2021/09/25 05:52:16;;;;;;;3.58;1.15;;;22.00;57.90;;;;;;5117407;27;20367;-61
2021/09/25 05:54:42;;;;;;;3.67;1.73;;;22.00;57.90;;;;;;5136076;27;20134;-62
2021/09/25 05:57:08;;;;;;;4.45;1.30;;;22.00;57.90;;;;;;5135774;27;20023;-62
2021/09/25 05:59:34;;;;;;;4.05;1.40;;;22.00;57.90;;;;;;5117283;27;20087;-62
2021/09/25 06:02:01;;;;;;;2.38;1.20;;;22.00;57.90;;;;;;5135747;27;20482;-62
2021/09/25 06:04:26;;;;;;;2.35;1.23;;;22.00;57.90;;;;;;5135694;27;20114;-62
2021/09/25 06:06:52;;;;;;;2.17;1.27;;;22.00;57.90;;;;;;5135619;27;20051;-62
2021/09/25 06:09:17;;;;;;;3.53;1.35;;;22.00;57.90;;;;;;5135816;27;20024;-62
2021/09/25 06:11:43;;;;;;;2.72;1.33;;;22.00;57.90;;;;;;5135454;27;20030;-62
2021/09/25 06:14:09;;;;;;;4.05;1.50;;;22.00;57.90;;;;;;5135704;27;20023;-62
2021/09/25 06:16:34;;;;;;;3.67;1.85;;;22.00;57.90;;;;;;5135399;27;20027;-62
2021/09/25 06:19:00;;;;;;;2.38;1.40;;;22.00;57.90;;;;;;5134250;27;20502;-62
2021/09/25 06:21:25;;;;;;;3.13;1.33;;;22.00;57.90;;;;;;5135250;27;20102;-62
2021/09/25 06:23:51;;;;;;;2.60;1.42;;;22.00;57.80;;;;;;5135492;27;20373;-62
2021/09/25 06:26:16;;;;;;;3.30;1.27;;;22.00;57.90;;;;;;5135292;27;20023;-62
2021/09/25 06:28:46;;;;;;;2.33;1.20;;;22.00;57.80;;;;;;5135206;27;20027;-62
2021/09/25 06:31:17;;;;;;;3.70;1.33;;;22.00;57.80;;;;;;5134918;27;20476;-62
2021/09/25 06:33:43;;;;;;;3.03;1.30;;;22.00;57.90;;;;;;5135073;27;20037;-62
2021/09/25 06:36:09;;;;;;;3.42;1.30;;;22.00;57.80;;;;;;5134988;27;20466;-62
2021/09/25 06:38:34;;;;;;;2.92;1.35;;;22.10;57.80;;;;;;5134550;27;20050;-62
2021/09/25 06:41:00;;;;;;;2.67;1.42;;;22.00;57.80;;;;;;5134999;27;20047;-62
2021/09/25 06:43:25;;;;;;;4.05;1.55;;;22.00;57.90;;;;;;5134658;27;20050;-62
2021/09/25 06:45:51;;;;;;;2.78;1.30;;;22.00;57.80;;;;;;5116327;27;20023;-62
2021/09/25 06:48:16;;;;;;;3.17;1.42;;;22.10;57.80;;;;;;5134752;27;20031;-63
2021/09/25 06:50:42;;;;;;;3.13;1.40;;;22.10;57.80;;;;;;5099108;27;20018;-61
2021/09/25 06:53:07;;;;;;;3.28;1.50;;;22.00;57.80;;;;;;5099343;27;20482;-63
2021/09/25 06:55:33;;;;;;;1.83;1.13;;;22.00;57.80;;;;;;5134752;27;20075;-61
2021/09/25 06:57:58;;;;;;;2.70;1.30;;;22.10;57.80;;;;;;5134271;27;20482;-63
2021/09/25 07:00:24;;;;;;;3.08;1.40;;;22.10;57.80;;;;;;5134397;27;20035;-62
2021/09/25 07:02:49;;;;;;;2.15;1.02;;;22.10;57.80;;;;;;5134510;27;20398;-62
2021/09/25 07:05:15;;;;;;;3.03;1.38;;;22.10;57.80;;;;;;5134330;27;20019;-62
2021/09/25 07:07:41;;;;;;;3.38;1.55;;;22.10;57.80;;;;;;5134282;27;20015;-62
2021/09/25 07:10:07;;;;;;;3.38;1.52;;;22.10;57.80;;;;;;5115920;27;20027;-61
2021/09/25 07:12:33;;;;;;;2.90;1.70;;;22.10;57.70;;;;;;5134183;27;20385;-62
2021/09/25 07:14:59;;;;;;;1.75;1.10;;;22.10;57.80;;;;;;5134219;27;20030;-62
2021/09/25 07:17:24;;;;;;;2.20;1.15;;;22.10;57.70;;;;;;5134258;27;20281;-62
2021/09/25 07:19:51;;;;;;;2.60;1.20;;;22.10;57.70;;;;;;5134121;27;20046;-62
2021/09/25 07:22:16;;;;;;;2.47;1.10;;;22.10;57.80;;;;;;5134104;27;20030;-62
2021/09/25 07:24:42;;;;;;;3.28;1.33;;;22.20;57.70;;;;;;5134487;27;20019;-62
2021/09/25 07:27:08;;;;;;;2.28;1.20;;;22.10;57.70;;;;;;5134180;27;20028;-63
2021/09/25 07:29:33;;;;;;;2.97;1.35;;;22.20;57.70;;;;;;5133769;27;20393;-63
2021/09/25 07:31:59;;;;;;;3.50;1.45;;;22.20;57.70;;;;;;5134035;27;20019;-62
2021/09/25 07:34:26;;;;;;;3.13;1.45;;;22.20;57.70;;;;;;5133843;27;20505;-63
2021/09/25 07:36:52;;;;;;;3.13;1.50;;;22.20;57.70;;;;;;5134114;27;20023;-63
2021/09/25 07:39:18;;;;;;;3.15;1.20;;;22.20;57.70;;;;;;5133753;27;20074;-63
2021/09/25 07:41:44;;;;;;;2.05;0.98;;;22.20;57.70;;;;;;5134011;27;20043;-61
2021/09/25 07:44:10;;;;;;;3.03;1.30;;;22.20;57.70;;;;;;5133848;28;20437;-61
2021/09/25 07:46:36;;;;;;;2.08;1.10;;;22.20;57.60;;;;;;5133606;28;20015;-62
2021/09/25 07:49:02;;;;;;;1.98;1.10;;;22.20;57.70;;;;;;5133712;28;20102;-62
2021/09/25 07:51:29;;;;;;;2.70;1.35;;;22.20;57.60;;;;;;5133728;28;20031;-62
2021/09/25 07:53:55;;;;;;;2.97;1.13;;;22.20;57.60;;;;;;5133756;28;20565;-62
2021/09/25 07:56:21;;;;;;;2.85;1.30;;;22.20;57.60;;;;;;5134043;28;20059;-62
2021/09/25 07:58:47;;;;;;;2.65;1.30;;;22.20;57.60;;;;;;5133598;28;20440;-63
2021/09/25 08:01:13;;;;;;;3.13;1.40;;;22.20;57.60;;;;;;5133701;28;20031;-62
2021/09/25 08:03:39;;;;;;;2.80;1.40;;;22.20;57.60;;;;;;5133567;28;20024;-61
2021/09/25 08:06:05;;;;;;;2.38;1.20;;;22.30;57.60;;;;;;5133508;28;20023;-62
2021/09/25 08:08:31;;;;;;;2.80;1.25;;;22.30;57.60;;;;;;5133569;28;20023;-63
2021/09/25 08:10:57;;;;;;;2.22;1.00;;;22.30;57.60;;;;;;5133568;28;20023;-63
2021/09/25 08:13:22;;;;;;;3.38;1.27;;;22.30;57.60;;;;;;5133675;28;20030;-63
2021/09/25 08:15:48;;;;;;;2.33;1.30;;;22.30;57.50;;;;;;5133849;28;20446;-63
2021/09/25 08:18:14;;;;;;;2.67;1.27;;;22.30;57.50;;;;;;5133549;28;20339;-63
2021/09/25 08:20:40;;;;;;;3.08;1.40;;;22.30;57.50;;;;;;5133590;28;20442;-63
2021/09/25 08:23:05;;;;;;;2.45;1.33;;;22.30;57.50;;;;;;5133521;28;20019;-63
2021/09/25 08:25:31;;;;;;;2.10;1.08;;;22.30;57.50;;;;;;5115106;28;20030;-63
2021/09/25 08:27:56;;;;;;;2.58;1.20;;;22.30;57.50;;;;;;5133443;28;20124;-63
2021/09/25 08:30:24;;;;;;;2.95;1.10;;;22.30;57.50;;;;;;5133467;28;20035;-63
2021/09/25 08:32:51;;;;;;;2.58;1.30;;;22.40;57.50;;;;;;5133174;28;20106;-62
2021/09/25 08:35:17;;;;;;;2.53;1.13;;;22.30;57.40;;;;;;5114740;28;20110;-62
2021/09/25 08:37:44;;;;;;;2.42;1.30;;;22.40;57.40;;;;;;5133100;28;20102;-62
2021/09/25 08:40:13;;;;;;;2.35;1.20;;;22.40;57.40;;;;;;5133334;28;20043;-62
2021/09/25 08:42:39;;;;;;;2.53;1.50;;;22.40;57.40;;;;;;5135772;27;20034;-62
2021/09/25 08:45:06;;;;;;;2.45;1.10;;;22.40;57.40;;;;;;5137168;27;20055;-62
2021/09/25 08:47:34;;;;;;;2.47;1.30;;;22.40;57.40;;;;;;5137060;27;20016;-62
2021/09/25 08:49:59;;;;;;;1.98;1.00;;;22.40;57.40;;;;;;5137408;27;20020;-62
2021/09/25 08:52:28;;;;;;;3.28;1.27;;;22.40;57.40;;;;;;5137277;27;20042;-61
2021/09/25 08:54:53;;;;;;;2.15;1.10;;;22.40;57.30;;;;;;5136941;27;20023;-62
2021/09/25 08:57:19;;;;;;;2.80;1.35;;;22.40;57.40;;;;;;5136970;27;20027;-62
2021/09/25 08:59:44;;;;;;;3.30;1.33;;;22.50;57.30;;;;;;5136718;27;20046;-62
2021/09/25 09:02:13;;;;;;;3.00;1.15;;;22.50;57.30;;;;;;5136922;27;20106;-62
2021/09/25 09:04:54;;;;;;;2.42;1.10;;;22.50;57.30;;;;;;5101430;27;20023;-62
2021/09/25 09:07:22;;;;;;;2.30;1.10;;;22.50;57.30;;;;;;5136738;27;20106;-62
2021/09/25 09:09:48;;;;;;;2.80;1.30;;;22.50;57.30;;;;;;5136601;27;20504;-62
2021/09/25 09:12:19;;;;;;;2.42;1.05;;;22.50;57.30;;;;;;5136567;27;20084;-62
2021/09/25 09:14:47;;;;;;;2.42;1.23;;;22.50;57.30;;;;;;5136531;27;20065;-62
2021/09/25 09:17:14;;;;;;;2.53;1.10;;;22.50;57.30;;;;;;5136516;27;20027;-62
2021/09/25 09:19:40;;;;;;;2.58;1.20;;;22.50;57.30;;;;;;5136460;27;20023;-62
2021/09/25 09:22:07;;;;;;;2.15;1.10;;;22.60;57.30;;;;;;5136471;27;20022;-62
2021/09/25 09:24:44;;;;;;;2.85;1.20;;;22.60;57.20;;;;;;5136547;27;20110;-62
2021/09/25 09:27:15;;;;;;;1.92;0.95;;;22.50;57.20;;;;;;5136518;27;20072;-62
2021/09/25 09:29:41;;;;;;;2.08;1.10;;;22.50;57.20;;;;;;5136292;27;20512;-62
2021/09/25 09:32:11;;;;;;;2.88;1.00;;;22.60;57.20;;;;;;5136283;27;20105;-62
2021/09/25 09:34:38;;;;;;;2.45;1.25;;;22.50;57.20;;;;;;5136324;27;20023;-62
2021/09/25 09:37:16;;;;;;;2.35;1.20;;;22.60;57.20;;;;;;5136362;27;20030;-62
2021/09/25 09:39:42;;;;;;;2.92;1.30;;;22.60;57.20;;;;;;5135819;27;20439;-62
2021/09/25 09:42:08;;;;;;;2.17;1.10;;;22.60;57.20;;;;;;5135963;27;20023;-62
2021/09/25 09:44:34;;;;;;;2.55;1.25;;;22.60;57.20;;;;;;5136000;27;20034;-62
2021/09/25 09:47:00;;;;;;;2.20;1.10;;;22.60;57.20;;;;;;5136064;27;20023;-62
2021/09/25 09:49:32;;;;;;;2.15;1.10;;;22.60;57.20;;;;;;5135685;27;20029;-62
2021/09/25 09:52:21;;;;;;;2.63;1.30;;;22.60;57.20;;;;;;5135673;27;20462;-62
2021/09/25 09:54:49;;;;;;;2.75;1.10;;;22.70;57.20;;;;;;5135353;27;20039;-62
2021/09/25 09:57:18;;;;;;;2.22;1.00;;;22.60;57.20;;;;;;5117411;27;20348;-62
2021/09/25 09:59:46;;;;;;;2.42;1.00;;;22.70;57.20;;;;;;5135506;27;20445;-62
2021/09/25 10:02:12;;;;;;;2.45;1.10;;;22.60;57.20;;;;;;5135545;27;20401;-62
2021/09/25 10:04:38;;;;;;;3.35;1.30;;;22.70;57.10;;;;;;5135773;27;20019;-62
2021/09/25 10:07:05;;;;;;;4.18;1.35;;;22.70;57.10;;;;;;5135780;27;20394;-63
2021/09/25 10:09:34;;;;;;;2.38;1.20;;;22.70;57.10;;;;;;5135648;27;20106;-62
2021/09/25 10:12:03;;;;;;;1.73;1.10;;;22.70;57.10;;;;;;5135364;27;20053;-63
2021/09/25 10:14:34;;;;;;;2.40;1.20;;;22.70;57.10;;;;;;5135412;27;20347;-61
2021/09/25 10:17:03;;;;;;;1.48;0.90;;;22.70;57.10;;;;;;5135294;27;20019;-61
2021/09/25 10:19:31;;;;;;;3.42;1.40;;;22.70;57.00;;;;;;5135412;27;20088;-60
2021/09/25 10:22:29;;;;;;;1.73;0.98;;;22.80;57.10;;;;;;5135469;27;20024;-61
2021/09/25 10:25:07;;;;;;;1.77;1.10;;;22.70;57.10;;;;;;5135129;27;20019;-63
2021/09/25 10:27:39;;;;;;;1.27;0.75;;;22.70;57.00;;;;;;5135169;27;20047;-61
2021/09/25 10:30:10;;;;;;;2.72;1.20;;;22.70;57.00;;;;;;5134903;27;20027;-62
2021/09/25 10:32:51;;;;;;;2.20;1.00;;;22.70;57.00;;;;;;5135006;27;20381;-62
2021/09/25 10:35:25;;;;;;;2.22;1.17;;;22.70;57.00;;;;;;5099605;27;20023;-62
2021/09/25 10:37:54;;;;;;;1.88;0.98;;;22.80;57.00;;;;;;5134790;27;20045;-62
2021/09/25 10:40:28;;;;;;;1.67;1.05;;;22.80;57.00;;;;;;5135017;27;20091;-62
2021/09/25 10:42:59;;;;;;;2.15;1.10;;;22.80;56.90;;;;;;5134818;27;20441;-62
2021/09/25 10:45:32;;;;;;;2.78;1.20;;;22.80;57.00;;;;;;5135013;27;20051;-62
2021/09/25 10:48:14;;;;;;;2.80;1.30;;;22.80;56.90;;;;;;5134703;27;20023;-62
2021/09/25 10:50:51;;;;;;;2.15;0.98;;;22.80;56.90;;;;;;5134422;27;20020;-62
2021/09/25 10:53:19;;;;;;;1.80;1.00;;;22.80;56.90;;;;;;5134795;27;20038;-62
2021/09/25 10:55:47;;;;;;;3.95;1.25;;;22.90;56.90;;;;;;5134559;27;20563;-62
2021/09/25 10:58:24;;;;;;;1.67;0.93;;;22.90;56.90;;;;;;5134418;27;20046;-62
2021/09/25 11:01:02;;;;;;;2.10;1.00;;;22.80;56.90;;;;;;5134509;27;20030;-62
2021/09/25 11:03:40;;;;;;;2.88;1.00;;;22.90;56.90;;;;;;5115968;27;20024;-61
2021/09/25 11:06:06;;;;;;;2.03;0.95;;;22.90;56.90;;;;;;5133936;27;20110;-62
2021/09/25 11:08:33;;;;;;;2.83;1.10;;;22.90;56.80;;;;;;5116050;27;20045;-61
2021/09/25 11:11:10;;;;;;;2.25;1.00;;;22.90;56.80;;;;;;5134254;27;20023;-62
2021/09/25 11:14:01;;;;;;;1.88;1.00;;;22.90;56.80;;;;;;5134308;27;20030;-61
2021/09/25 11:16:47;;;;;;;2.30;1.00;;;22.90;56.80;;;;;;5134251;27;20034;-62
2021/09/25 11:19:21;;;;;;;1.80;1.02;;;22.90;56.80;;;;;;5134092;27;20031;-62
2021/09/25 11:21:51;;;;;;;2.47;1.17;;;22.90;56.80;;;;;;5134135;27;20027;-62
2021/09/25 11:24:17;;;;;;;1.70;1.00;;;22.90;56.80;;;;;;5133963;27;20023;-62
2021/09/25 11:26:43;;;;;;;2.13;1.13;;;22.90;56.80;;;;;;5134214;27;20054;-62
2021/09/25 11:29:09;;;;;;;2.58;1.00;;;22.90;56.80;;;;;;5133875;27;20024;-62
2021/09/25 11:31:36;;;;;;;1.90;0.90;;;22.90;56.80;;;;;;5133868;27;20041;-62
2021/09/25 11:34:03;;;;;;;1.95;0.85;;;23.00;56.80;;;;;;5133883;27;20030;-62
2021/09/25 11:36:29;;;;;;;1.98;1.05;;;22.90;56.80;;;;;;5134094;27;20102;-62
2021/09/25 11:38:55;;;;;;;1.70;0.80;;;23.00;56.70;;;;;;5133871;27;20043;-62
2021/09/25 11:41:21;;;;;;;2.25;1.25;;;23.00;56.70;;;;;;5133843;28;20501;-62
2021/09/25 11:43:56;;;;;;;2.28;1.05;;;23.00;56.70;;;;;;5133853;27;20015;-62
2021/09/25 11:46:26;;;;;;;2.25;0.90;;;23.00;56.70;;;;;;5133991;28;20031;-62
2021/09/25 11:48:57;;;;;;;2.50;1.10;;;23.00;56.70;;;;;;5133839;28;20558;-62
2021/09/25 11:51:23;;;;;;;2.55;1.10;;;23.00;56.60;;;;;;5115816;28;20072;-62
2021/09/25 11:53:53;;;;;;;1.77;0.93;;;23.00;56.60;;;;;;5133701;28;20027;-63
2021/09/25 11:56:29;;;;;;;1.95;1.13;;;23.00;56.70;;;;;;5133982;28;20156;-62
2021/09/25 11:58:59;;;;;;;2.17;1.00;;;23.00;56.70;;;;;;5133576;28;20035;-63
2021/09/25 12:01:25;;;;;;;2.60;1.35;;;23.00;56.70;;;;;;5133726;28;20474;-62
2021/09/25 12:03:50;;;;;;;1.70;1.00;;;23.00;56.60;;;;;;5133671;28;20035;-61
2021/09/25 12:06:16;;;;;;;2.13;1.10;;;23.00;56.60;;;;;;5133610;28;20347;-61
2021/09/25 12:08:41;;;;;;;1.92;1.05;;;23.00;56.60;;;;;;5133656;28;20027;-61
2021/09/25 12:11:09;;;;;;;1.98;1.13;;;23.00;56.60;;;;;;5115316;28;20027;-61
2021/09/25 12:13:35;;;;;;;1.75;0.80;;;23.10;56.60;;;;;;5133647;28;20027;-61
2021/09/25 12:16:10;;;;;;;2.03;0.80;;;23.10;56.60;;;;;;5135252;27;20102;-63
2021/09/25 12:18:38;;;;;;;1.88;0.88;;;23.10;56.60;;;;;;5137717;27;20030;-61
2021/09/25 12:21:06;;;;;;;2.55;1.05;;;23.10;56.60;;;;;;5137668;27;20031;-61
2021/09/25 12:23:40;;;;;;;2.05;1.02;;;23.10;56.60;;;;;;5137873;27;20023;-61
2021/09/25 12:26:15;;;;;;;2.08;0.90;;;23.10;56.60;;;;;;5119069;27;20080;-61
2021/09/25 12:28:47;;;;;;;1.60;0.85;;;23.10;56.60;;;;;;5137590;27;20543;-61
2021/09/25 12:31:26;;;;;;;1.45;0.80;;;23.10;56.50;;;;;;5137424;27;20027;-61
2021/09/25 12:33:57;;;;;;;1.73;1.00;;;23.10;56.60;;;;;;5137333;27;20473;-63
2021/09/25 12:36:28;;;;;;;1.98;1.10;;;23.10;56.60;;;;;;5137382;27;20019;-61
2021/09/25 12:38:59;;;;;;;1.80;1.00;;;23.10;56.50;;;;;;5137079;27;20041;-61
2021/09/25 12:41:26;;;;;;;2.42;1.10;;;23.10;56.60;;;;;;5137588;27;20035;-62
2021/09/25 12:43:54;;;;;;;2.22;1.30;;;23.10;56.50;;;;;;5137253;27;20023;-61
2021/09/25 12:46:35;;;;;;;2.35;1.02;;;23.20;56.60;;;;;;5137343;27;20076;-61
2021/09/25 12:49:09;;;;;;;1.90;1.08;;;23.10;56.60;;;;;;5137569;27;20027;-62